Time;durP1;ratioP1;P1;durP2;ratioP2;P2;SDS_P1;SDS_P2;PMS_P1;PMS_P2;Temp;Humidity;BMP_temperature;BMP_pressure;BME280_temperature;BME280_humidity;BME280_pressure;Samples;Min_cycle;Max_cycle;Signal;HPM_P1;HPM_P2
2022/03/15 00:01:19;;;;;;;17.27;13.07;;;;;;;;;;10275779;28;20081;-52
2022/03/15 00:06:17;;;;;;;20.48;14.68;;;;;;;;;;10275569;28;20088;-54
2022/03/15 00:11:16;;;;;;;19.02;13.45;;;;;;;;;;10275455;28;20084;-53
2022/03/15 00:16:15;;;;;;;15.65;11.63;;;;;;;;;;10275386;28;20072;-50
2022/03/15 00:21:15;;;;;;;14.68;12.77;;;;;;;;;;10275251;28;20056;-51
2022/03/15 00:26:13;;;;;;;15.50;12.13;;;;;;;;;;10275601;28;20053;-54
2022/03/15 00:31:11;;;;;;;13.90;11.32;;;;;;;;;;10275037;28;20525;-53
2022/03/15 00:36:11;;;;;;;14.73;11.82;;;;;;;;;;10273905;28;20045;-54
2022/03/15 00:41:10;;;;;;;14.25;11.73;;;;;;;;;;10275941;28;20069;-55
2022/03/15 00:46:08;;;;;;;15.65;12.75;;;;;;;;;;10275917;28;20041;-50
2022/03/15 00:51:06;;;;;;;16.83;13.25;;;;;;;;;;10271390;28;20088;-54
2022/03/15 00:56:07;;;;;;;13.90;10.70;;;;;;;;;;10272711;28;20129;-54
2022/03/15 01:01:05;;;;;;;14.00;11.50;;;;;;;;;;10275489;28;20524;-49
2022/03/15 01:06:03;;;;;;;15.95;11.65;;;;;;;;;;10275449;28;20155;-55
2022/03/15 01:11:05;;;;;;;13.63;11.60;;;;;;;;;;10281364;28;20076;-49
2022/03/15 01:16:05;;;;;;;17.50;12.25;;;;;;;;;;10283218;28;20498;-55
2022/03/15 01:21:03;;;;;;;15.98;12.18;;;;;;;;;;10281382;28;20143;-54
2022/03/15 01:26:03;;;;;;;24.90;14.50;;;;;;;;;;10282806;28;20075;-54
2022/03/15 01:31:01;;;;;;;23.02;13.55;;;;;;;;;;10280811;28;20057;-52
2022/03/15 01:36:01;;;;;;;22.42;14.73;;;;;;;;;;10281341;28;20072;-55
2022/03/15 01:40:59;;;;;;;13.80;11.43;;;;;;;;;;10282174;28;20091;-55
2022/03/15 01:45:57;;;;;;;19.63;12.43;;;;;;;;;;10281848;28;20498;-55
2022/03/15 01:50:55;;;;;;;14.05;10.50;;;;;;;;;;10280898;28;20091;-49
2022/03/15 01:55:59;;;;;;;14.82;11.18;;;;;;;;;;10281690;28;20048;-54
2022/03/15 02:00:57;;;;;;;12.45;10.05;;;;;;;;;;10280000;28;20052;-54
2022/03/15 02:05:56;;;;;;;15.00;12.13;;;;;;;;;;10279719;28;20399;-55
2022/03/15 02:10:55;;;;;;;24.58;16.27;;;;;;;;;;10280892;28;20478;-54
2022/03/15 02:15:54;;;;;;;17.50;13.15;;;;;;;;;;10280894;28;20084;-55
2022/03/15 02:20:54;;;;;;;18.23;12.88;;;;;;;;;;10280512;28;20418;-54
2022/03/15 02:25:52;;;;;;;13.32;10.20;;;;;;;;;;10280461;28;20041;-52
2022/03/15 02:30:51;;;;;;;13.15;11.05;;;;;;;;;;10280321;28;20083;-55
2022/03/15 02:35:49;;;;;;;13.27;11.10;;;;;;;;;;10280190;28;20044;-54
2022/03/15 02:40:49;;;;;;;13.40;9.73;;;;;;;;;;10279698;28;20049;-55
2022/03/15 02:45:48;;;;;;;30.15;20.38;;;;;;;;;;10279383;28;20120;-52
2022/03/15 02:50:47;;;;;;;24.60;18.40;;;;;;;;;;10278730;28;20407;-53
2022/03/15 02:55:47;;;;;;;30.98;20.75;;;;;;;;;;10279281;28;20222;-52
2022/03/15 03:00:46;;;;;;;26.38;17.48;;;;;;;;;;10278981;28;20108;-55
2022/03/15 03:05:45;;;;;;;26.70;18.48;;;;;;;;;;10278841;28;20314;-53
2022/03/15 03:10:43;;;;;;;25.20;16.98;;;;;;;;;;10278467;28;20493;-52
2022/03/15 03:15:42;;;;;;;24.80;17.73;;;;;;;;;;10278513;28;20033;-55
2022/03/15 03:20:42;;;;;;;21.33;15.70;;;;;;;;;;10277941;28;20045;-52
2022/03/15 03:25:40;;;;;;;16.88;12.23;;;;;;;;;;10278244;28;20055;-54
2022/03/15 03:30:46;;;;;;;17.02;11.95;;;;;;;;;;10277401;28;20293;-51
2022/03/15 03:35:49;;;;;;;14.73;12.18;;;;;;;;;;10277765;28;20048;-52
2022/03/15 03:40:47;;;;;;;15.07;13.23;;;;;;;;;;10277649;28;20056;-54
2022/03/15 03:45:46;;;;;;;14.15;10.90;;;;;;;;;;10277213;28;20057;-53
2022/03/15 03:50:45;;;;;;;17.83;11.18;;;;;;;;;;10276447;28;20088;-51
2022/03/15 03:55:44;;;;;;;14.10;11.10;;;;;;;;;;10277056;28;20047;-53
2022/03/15 04:00:42;;;;;;;15.55;11.55;;;;;;;;;;10276906;28;20044;-54
2022/03/15 04:05:40;;;;;;;38.55;20.60;;;;;;;;;;10276520;28;20041;-54
2022/03/15 04:10:40;;;;;;;57.25;28.73;;;;;;;;;;10276432;28;20084;-52
2022/03/15 04:15:38;;;;;;;20.02;14.18;;;;;;;;;;10276331;28;20468;-54
2022/03/15 04:20:37;;;;;;;16.00;11.50;;;;;;;;;;10275778;28;20079;-50
2022/03/15 04:25:35;;;;;;;15.15;11.68;;;;;;;;;;10276207;28;20131;-55
2022/03/15 04:30:35;;;;;;;18.92;14.48;;;;;;;;;;10275827;28;20085;-52
2022/03/15 04:35:33;;;;;;;14.50;11.50;;;;;;;;;;10275739;28;20076;-54
2022/03/15 04:40:31;;;;;;;13.88;11.00;;;;;;;;;;10271871;28;20080;-54
2022/03/15 04:45:29;;;;;;;16.08;12.70;;;;;;;;;;10240770;28;20033;-54
2022/03/15 04:50:30;;;;;;;21.10;15.93;;;;;;;;;;10243347;28;20502;-53
2022/03/15 04:55:28;;;;;;;23.80;15.25;;;;;;;;;;10263902;28;20083;-54
2022/03/15 05:00:27;;;;;;;22.05;17.00;;;;;;;;;;10280254;28;20406;-52
2022/03/15 05:05:25;;;;;;;32.08;19.20;;;;;;;;;;10245476;28;20463;-53
2022/03/15 05:15:40;;;;;;;21.58;17.08;;;;;;;;;;10280866;28;20502;-55
2022/03/15 05:20:41;;;;;;;30.20;21.58;;;;;;;;;;10282534;28;20527;-54
2022/03/15 05:25:40;;;;;;;32.08;21.52;;;;;;;;;;10282886;28;20052;-52
2022/03/15 05:30:39;;;;;;;28.13;18.25;;;;;;;;;;10277636;28;20080;-50
2022/03/15 05:35:37;;;;;;;19.23;15.20;;;;;;;;;;10278763;28;20506;-54
2022/03/15 05:40:35;;;;;;;15.35;13.75;;;;;;;;;;10274218;28;20065;-52
2022/03/15 05:45:35;;;;;;;17.55;14.60;;;;;;;;;;10268620;28;20509;-53
2022/03/15 05:50:34;;;;;;;15.68;12.93;;;;;;;;;;10273647;28;20084;-53
2022/03/15 05:55:32;;;;;;;20.35;15.55;;;;;;;;;;10259123;28;20050;-55
2022/03/15 06:00:32;;;;;;;18.00;14.10;;;;;;;;;;10262736;28;20073;-51
2022/03/15 06:05:32;;;;;;;29.75;18.15;;;;;;;;;;10258101;28;20083;-52
2022/03/15 06:10:31;;;;;;;18.80;14.80;;;;;;;;;;10255095;28;20084;-52
2022/03/15 06:15:29;;;;;;;31.98;19.88;;;;;;;;;;10272111;28;20080;-54
2022/03/15 06:20:28;;;;;;;44.50;25.50;;;;;;;;;;10275847;28;20071;-54
2022/03/15 06:25:30;;;;;;;49.28;29.45;;;;;;;;;;10253915;28;20529;-53
2022/03/15 06:30:28;;;;;;;54.38;32.78;;;;;;;;;;10260388;28;20498;-53
2022/03/15 06:35:28;;;;;;;37.50;20.77;;;;;;;;;;10259221;28;20073;-51
2022/03/15 06:40:27;;;;;;;35.28;22.95;;;;;;;;;;10257850;28;20080;-55
2022/03/15 06:45:26;;;;;;;48.95;31.25;;;;;;;;;;10263204;28;20562;-52
2022/03/15 06:50:25;;;;;;;28.58;16.77;;;;;;;;;;10236854;28;20077;-55
2022/03/15 06:55:23;;;;;;;41.10;22.80;;;;;;;;;;10238407;28;20081;-50
2022/03/15 07:00:21;;;;;;;21.90;16.20;;;;;;;;;;10237484;28;20041;-53
2022/03/15 07:05:21;;;;;;;51.55;30.15;;;;;;;;;;10230809;28;20077;-53
2022/03/15 07:10:20;;;;;;;56.05;28.67;;;;;;;;;;10229716;28;20504;-53
2022/03/15 07:15:20;;;;;;;16.17;12.85;;;;;;;;;;10230811;28;20507;-52
2022/03/15 07:20:18;;;;;;;41.10;22.95;;;;;;;;;;10236324;28;20518;-55
2022/03/15 07:25:20;;;;;;;22.48;14.80;;;;;;;;;;10237527;28;20053;-52
2022/03/15 07:30:18;;;;;;;21.27;15.70;;;;;;;;;;10237619;28;20080;-53
2022/03/15 07:35:17;;;;;;;24.98;17.00;;;;;;;;;;10237142;28;20133;-55
2022/03/15 07:40:15;;;;;;;33.20;20.98;;;;;;;;;;10237387;28;20541;-50
2022/03/15 07:45:15;;;;;;;29.40;20.92;;;;;;;;;;10237156;28;20057;-56
2022/03/15 07:50:13;;;;;;;24.98;18.67;;;;;;;;;;10236059;28;20530;-55
2022/03/15 07:55:11;;;;;;;18.45;14.38;;;;;;;;;;10236377;28;20072;-54
2022/03/15 08:00:10;;;;;;;20.25;15.77;;;;;;;;;;10236695;28;20049;-55
2022/03/15 08:05:15;;;;;;;20.23;14.93;;;;;;;;;;10236418;28;20133;-54
2022/03/15 08:10:13;;;;;;;28.90;18.85;;;;;;;;;;10236358;28;20060;-54
2022/03/15 08:15:12;;;;;;;31.35;20.15;;;;;;;;;;10236026;28;20084;-54
2022/03/15 08:20:14;;;;;;;23.08;16.40;;;;;;;;;;10235532;28;20068;-54
2022/03/15 08:25:14;;;;;;;25.23;16.50;;;;;;;;;;10235579;28;20045;-54
2022/03/15 08:30:13;;;;;;;19.77;13.50;;;;;;;;;;10235640;28;20076;-56
2022/03/15 08:35:12;;;;;;;18.48;14.40;;;;;;;;;;10235298;28;20081;-54
2022/03/15 08:40:11;;;;;;;25.58;17.70;;;;;;;;;;10235447;28;20045;-54
2022/03/15 08:45:11;;;;;;;17.73;13.10;;;;;;;;;;10235010;28;20041;-54
2022/03/15 08:50:10;;;;;;;21.20;13.88;;;;;;;;;;10234736;28;20080;-54
2022/03/15 08:55:08;;;;;;;24.23;15.52;;;;;;;;;;10234888;28;20081;-55
2022/03/15 09:00:07;;;;;;;21.65;13.75;;;;;;;;;;10235043;28;20506;-54
2022/03/15 09:05:08;;;;;;;18.73;14.80;;;;;;;;;;10235028;28;20069;-55
2022/03/15 09:10:07;;;;;;;56.70;29.50;;;;;;;;;;10234571;28;20088;-54
2022/03/15 09:15:05;;;;;;;30.85;21.00;;;;;;;;;;10234597;28;20091;-53
2022/03/15 09:20:04;;;;;;;44.72;25.27;;;;;;;;;;10234321;28;20077;-55
2022/03/15 09:25:04;;;;;;;37.97;26.55;;;;;;;;;;10234591;28;20482;-54
2022/03/15 09:30:03;;;;;;;24.35;17.63;;;;;;;;;;10237242;28;20084;-52
2022/03/15 09:35:01;;;;;;;33.25;23.92;;;;;;;;;;10242224;28;20096;-56
2022/03/15 09:40:00;;;;;;;28.58;15.43;;;;;;;;;;10242063;28;20092;-51
2022/03/15 09:45:00;;;;;;;14.43;12.57;;;;;;;;;;10241376;28;20049;-55
2022/03/15 09:49:59;;;;;;;22.60;16.20;;;;;;;;;;10240815;28;20086;-54
2022/03/15 09:54:58;;;;;;;21.95;15.57;;;;;;;;;;10241288;28;20088;-53
2022/03/15 10:00:00;;;;;;;22.20;19.27;;;;;;;;;;10241166;28;20163;-49
2022/03/15 10:04:59;;;;;;;24.48;17.35;;;;;;;;;;10244034;28;20087;-52
2022/03/15 10:09:57;;;;;;;14.65;12.18;;;;;;;;;;10240798;28;20051;-54
2022/03/15 10:14:56;;;;;;;23.90;12.68;;;;;;;;;;10240220;28;20441;-54
2022/03/15 10:19:57;;;;;;;19.00;11.45;;;;;;;;;;10240262;28;20476;-54
2022/03/15 10:24:55;;;;;;;15.45;11.40;;;;;;;;;;10240259;28;20053;-54
2022/03/15 10:29:53;;;;;;;22.58;14.95;;;;;;;;;;10239801;28;20049;-55
2022/03/15 10:34:52;;;;;;;14.43;11.23;;;;;;;;;;10239870;28;20467;-54
2022/03/15 10:39:52;;;;;;;20.52;14.52;;;;;;;;;;10238743;28;20050;-53
2022/03/15 10:44:50;;;;;;;17.20;11.63;;;;;;;;;;10239152;28;20082;-54
2022/03/15 10:49:51;;;;;;;25.23;17.17;;;;;;;;;;10238656;28;20085;-53
2022/03/15 10:54:49;;;;;;;18.45;13.40;;;;;;;;;;10238850;28;20092;-55
2022/03/15 10:59:49;;;;;;;21.25;14.40;;;;;;;;;;10238695;28;20478;-53
2022/03/15 11:04:47;;;;;;;24.73;14.68;;;;;;;;;;10238485;28;20038;-55
2022/03/15 11:09:46;;;;;;;19.33;13.45;;;;;;;;;;10238218;28;20050;-55
2022/03/15 11:14:46;;;;;;;22.23;15.73;;;;;;;;;;10237896;28;20084;-53
2022/03/15 11:19:52;;;;;;;21.13;13.65;;;;;;;;;;10238167;28;20049;-55
2022/03/15 11:24:55;;;;;;;18.67;13.55;;;;;;;;;;10237613;28;20045;-53
2022/03/15 11:29:56;;;;;;;17.35;12.32;;;;;;;;;;10237402;28;20533;-54
2022/03/15 11:34:56;;;;;;;44.55;22.52;;;;;;;;;;10237505;28;20084;-53
2022/03/15 11:39:54;;;;;;;36.58;23.58;;;;;;;;;;10237171;28;20076;-52
2022/03/15 11:44:56;;;;;;;22.92;18.25;;;;;;;;;;10236762;28;20037;-55
2022/03/15 11:49:59;;;;;;;22.15;15.80;;;;;;;;;;10236211;28;20473;-52
2022/03/15 11:55:02;;;;;;;22.50;17.27;;;;;;;;;;10236130;28;20076;-56
2022/03/15 12:00:02;;;;;;;19.27;13.57;;;;;;;;;;10236669;28;20097;-56
2022/03/15 12:05:17;;;;;;;17.60;13.52;;;;;;;;;;10238954;28;20112;-56
2022/03/15 12:10:23;;;;;;;22.08;14.50;;;;;;;;;;10236726;28;20045;-56
2022/03/15 12:15:36;;;;;;;18.00;11.50;;;;;;;;;;10236134;28;20430;-55
2022/03/15 12:20:46;;;;;;;17.10;13.23;;;;;;;;;;10235660;28;20095;-55
2022/03/15 12:25:51;;;;;;;18.08;14.90;;;;;;;;;;10236080;28;20053;-56
2022/03/15 12:30:51;;;;;;;19.80;14.15;;;;;;;;;;10235624;28;20046;-56
2022/03/15 12:35:58;;;;;;;21.10;15.02;;;;;;;;;;10235588;28;20081;-55
2022/03/15 12:40:56;;;;;;;17.75;15.43;;;;;;;;;;10235711;28;20042;-56
2022/03/15 12:45:55;;;;;;;25.13;16.25;;;;;;;;;;10235528;28;20518;-54
2022/03/15 12:50:57;;;;;;;16.10;13.05;;;;;;;;;;10234833;28;20640;-56
2022/03/15 12:55:57;;;;;;;17.75;12.00;;;;;;;;;;10235388;28;20482;-56
2022/03/15 13:00:56;;;;;;;17.30;12.15;;;;;;;;;;10235154;28;20478;-54
2022/03/15 13:05:57;;;;;;;26.05;17.80;;;;;;;;;;10239455;28;20056;-55
2022/03/15 13:10:58;;;;;;;21.35;15.65;;;;;;;;;;10243398;28;20423;-56
2022/03/15 13:15:58;;;;;;;25.65;18.55;;;;;;;;;;10242772;28;20088;-54
2022/03/15 13:21:01;;;;;;;23.25;15.68;;;;;;;;;;10242595;28;20435;-54
2022/03/15 13:26:04;;;;;;;36.97;20.83;;;;;;;;;;10242326;28;20491;-54
2022/03/15 13:31:07;;;;;;;29.40;15.18;;;;;;;;;;10242505;28;20136;-55
2022/03/15 13:36:09;;;;;;;35.50;22.75;;;;;;;;;;10240768;28;20088;-53
2022/03/15 13:41:08;;;;;;;20.15;14.20;;;;;;;;;;10242037;28;20070;-55
2022/03/15 13:46:06;;;;;;;23.70;16.35;;;;;;;;;;10241628;28;20073;-54
2022/03/15 13:51:09;;;;;;;17.98;12.05;;;;;;;;;;10240666;28;20088;-55
2022/03/15 13:56:13;;;;;;;78.25;41.63;;;;;;;;;;10239455;28;20081;-57
2022/03/15 14:01:12;;;;;;;26.65;17.55;;;;;;;;;;10240145;28;20510;-54
2022/03/15 14:06:12;;;;;;;165.45;76.78;;;;;;;;;;10240604;28;20088;-55
2022/03/15 14:11:12;;;;;;;76.75;52.17;;;;;;;;;;10240247;28;20049;-54
2022/03/15 14:16:10;;;;;;;22.50;16.10;;;;;;;;;;10239296;28;20081;-56
2022/03/15 14:21:23;;;;;;;43.75;26.85;;;;;;;;;;10240009;28;20128;-55
2022/03/15 14:26:27;;;;;;;40.67;21.90;;;;;;;;;;10238908;28;20470;-54
2022/03/15 14:31:30;;;;;;;28.02;17.23;;;;;;;;;;10239520;28;20481;-54
2022/03/15 14:36:31;;;;;;;40.95;27.92;;;;;;;;;;10238987;28;20177;-52
2022/03/15 14:41:30;;;;;;;33.38;21.35;;;;;;;;;;10238501;28;20085;-56
2022/03/15 14:46:28;;;;;;;112.75;57.38;;;;;;;;;;10238226;28;20526;-52
2022/03/15 14:51:26;;;;;;;27.38;18.95;;;;;;;;;;10237876;28;20084;-54
2022/03/15 14:56:26;;;;;;;35.72;20.20;;;;;;;;;;10237367;28;20088;-56
2022/03/15 15:01:24;;;;;;;38.50;26.65;;;;;;;;;;10237903;28;20084;-54
2022/03/15 15:06:24;;;;;;;79.65;43.08;;;;;;;;;;10237734;28;20106;-56
2022/03/15 15:11:26;;;;;;;42.40;25.52;;;;;;;;;;10238422;28;20054;-56
2022/03/15 15:16:27;;;;;;;72.53;44.58;;;;;;;;;;10237125;28;20084;-52
2022/03/15 15:21:27;;;;;;;55.60;34.10;;;;;;;;;;10236937;28;20511;-54
2022/03/15 15:26:25;;;;;;;91.75;56.13;;;;;;;;;;10236684;28;20493;-54
2022/03/15 15:31:24;;;;;;;149.50;77.53;;;;;;;;;;10237264;28;20053;-53
2022/03/15 15:36:24;;;;;;;122.95;74.43;;;;;;;;;;10236219;28;20080;-54
2022/03/15 15:41:31;;;;;;;63.35;43.50;;;;;;;;;;10236121;28;20419;-56
2022/03/15 15:46:29;;;;;;;46.65;32.40;;;;;;;;;;10235971;28;20057;-55
2022/03/15 15:51:29;;;;;;;48.95;31.23;;;;;;;;;;10236000;28;20053;-57
2022/03/15 15:56:29;;;;;;;31.30;21.52;;;;;;;;;;10235467;28;20081;-56
2022/03/15 16:01:31;;;;;;;34.38;23.95;;;;;;;;;;10236181;28;20080;-57
2022/03/15 16:06:31;;;;;;;60.85;36.83;;;;;;;;;;10235413;28;20423;-55
2022/03/15 16:11:29;;;;;;;35.72;24.60;;;;;;;;;;10235339;28;20087;-56
2022/03/15 16:16:28;;;;;;;40.45;26.70;;;;;;;;;;10234859;28;20535;-55
2022/03/15 16:21:28;;;;;;;28.02;18.98;;;;;;;;;;10235113;28;20049;-55
2022/03/15 16:26:28;;;;;;;42.53;24.95;;;;;;;;;;10235009;28;20081;-55
2022/03/15 16:31:27;;;;;;;159.38;83.93;;;;;;;;;;10235189;28;20080;-55
2022/03/15 16:36:26;;;;;;;47.97;28.70;;;;;;;;;;10234996;28;20088;-56
2022/03/15 16:41:25;;;;;;;46.45;32.30;;;;;;;;;;10234172;28;20080;-55
2022/03/15 16:46:24;;;;;;;47.20;23.88;;;;;;;;;;10234266;28;20450;-55
2022/03/15 16:51:23;;;;;;;26.98;18.30;;;;;;;;;;10234988;28;20086;-54
2022/03/15 16:56:21;;;;;;;26.25;21.98;;;;;;;;;;10232901;28;20089;-55
2022/03/15 17:01:19;;;;;;;37.60;28.95;;;;;;;;;;10233763;28;20061;-53
2022/03/15 17:06:20;;;;;;;58.95;34.60;;;;;;;;;;10230031;28;20049;-54
2022/03/15 17:11:25;;;;;;;61.65;37.28;;;;;;;;;;10227962;28;20053;-56
2022/03/15 17:16:23;;;;;;;49.00;31.73;;;;;;;;;;10227861;28;20080;-55
2022/03/15 17:21:29;;;;;;;51.13;31.85;;;;;;;;;;10233292;28;20087;-53
2022/03/15 17:26:28;;;;;;;51.80;30.98;;;;;;;;;;10234022;28;20084;-55
2022/03/15 17:31:29;;;;;;;51.13;34.53;;;;;;;;;;10233392;28;20041;-55
2022/03/15 17:36:29;;;;;;;31.13;22.88;;;;;;;;;;10233512;28;20077;-56
2022/03/15 17:41:27;;;;;;;23.02;17.42;;;;;;;;;;10233194;28;20089;-53
2022/03/15 17:46:28;;;;;;;21.15;16.10;;;;;;;;;;10232885;28;20083;-55
2022/03/15 17:51:32;;;;;;;20.60;15.43;;;;;;;;;;10265918;28;20076;-50
2022/03/15 17:56:33;;;;;;;20.95;13.55;;;;;;;;;;10266133;28;20095;-55
2022/03/15 18:01:32;;;;;;;18.73;12.30;;;;;;;;;;10274512;28;20087;-53
2022/03/15 18:06:34;;;;;;;45.28;33.03;;;;;;;;;;10247060;28;20084;-53
2022/03/15 18:11:34;;;;;;;22.30;15.30;;;;;;;;;;10263139;28;20068;-54
2022/03/15 18:16:33;;;;;;;15.60;12.38;;;;;;;;;;10255253;28;20108;-55
2022/03/15 18:21:35;;;;;;;14.32;11.20;;;;;;;;;;10260785;28;20072;-50
2022/03/15 18:26:34;;;;;;;20.58;14.35;;;;;;;;;;10266388;28;20081;-53
2022/03/15 18:31:32;;;;;;;21.98;16.45;;;;;;;;;;10262202;28;20065;-54
2022/03/15 18:36:32;;;;;;;35.85;23.45;;;;;;;;;;10264108;28;20534;-54
2022/03/15 18:41:31;;;;;;;37.22;26.02;;;;;;;;;;10258269;28;20073;-55
2022/03/15 18:46:35;;;;;;;38.85;26.17;;;;;;;;;;10256714;28;20080;-55
2022/03/15 18:51:35;;;;;;;31.48;23.90;;;;;;;;;;10256765;28;20080;-53
2022/03/15 18:56:34;;;;;;;35.70;22.77;;;;;;;;;;10256522;28;20092;-53
2022/03/15 19:01:32;;;;;;;26.60;18.92;;;;;;;;;;10240734;28;20088;-53
2022/03/15 19:06:37;;;;;;;28.33;18.15;;;;;;;;;;10253160;28;20080;-50
2022/03/15 19:11:44;;;;;;;25.70;17.15;;;;;;;;;;10274612;28;20072;-54
2022/03/15 19:16:42;;;;;;;26.00;19.05;;;;;;;;;;10258164;28;20072;-53
2022/03/15 19:21:43;;;;;;;20.52;17.13;;;;;;;;;;10261136;28;20071;-55
2022/03/15 19:26:43;;;;;;;22.23;17.00;;;;;;;;;;10245629;28;20088;-55
2022/03/15 19:31:42;;;;;;;29.73;18.67;;;;;;;;;;10261867;28;20048;-54
2022/03/15 19:36:41;;;;;;;18.17;12.50;;;;;;;;;;10271207;28;20510;-51
2022/03/15 19:41:40;;;;;;;25.80;19.77;;;;;;;;;;10250104;28;20414;-54
2022/03/15 19:46:43;;;;;;;38.97;29.73;;;;;;;;;;10256355;28;20084;-54
2022/03/15 19:51:46;;;;;;;28.08;23.27;;;;;;;;;;10255666;28;20082;-54
2022/03/15 19:56:45;;;;;;;33.17;23.88;;;;;;;;;;10262195;28;20088;-53
2022/03/15 20:01:47;;;;;;;29.95;23.70;;;;;;;;;;10243833;28;20056;-55
2022/03/15 20:06:46;;;;;;;22.20;19.00;;;;;;;;;;10253075;28;20083;-50
2022/03/15 20:11:45;;;;;;;30.67;22.77;;;;;;;;;;10264213;28;20069;-51
2022/03/15 20:16:43;;;;;;;25.67;19.58;;;;;;;;;;10266015;28;20075;-51
2022/03/15 20:21:45;;;;;;;39.75;27.40;;;;;;;;;;10255934;28;20088;-53
2022/03/15 20:26:43;;;;;;;43.92;30.23;;;;;;;;;;10252394;28;20068;-51
2022/03/15 20:31:45;;;;;;;28.52;23.27;;;;;;;;;;10248745;28;20069;-49
2022/03/15 20:36:48;;;;;;;31.03;18.90;;;;;;;;;;10260329;28;20098;-54
2022/03/15 20:41:47;;;;;;;24.80;17.95;;;;;;;;;;10268183;28;20061;-50
2022/03/15 20:46:52;;;;;;;20.13;16.15;;;;;;;;;;10261770;28;20080;-50
2022/03/15 20:51:54;;;;;;;20.60;15.80;;;;;;;;;;10245203;28;20057;-53
2022/03/15 20:56:53;;;;;;;24.55;16.23;;;;;;;;;;10234415;28;20517;-50
2022/03/15 21:01:56;;;;;;;21.38;18.25;;;;;;;;;;10249534;28;20066;-52
2022/03/15 21:06:57;;;;;;;20.30;13.57;;;;;;;;;;10231768;28;20064;-50
2022/03/15 21:11:58;;;;;;;26.88;18.52;;;;;;;;;;10236869;28;20049;-55
2022/03/15 21:16:58;;;;;;;17.90;13.18;;;;;;;;;;10244393;28;20088;-50
2022/03/15 21:21:58;;;;;;;18.48;14.07;;;;;;;;;;10261593;28;20522;-47
2022/03/15 21:26:58;;;;;;;18.13;12.52;;;;;;;;;;10258350;28;20056;-52
2022/03/15 21:31:56;;;;;;;18.58;13.48;;;;;;;;;;10257649;28;20080;-54
2022/03/15 21:36:54;;;;;;;16.95;13.32;;;;;;;;;;10238727;28;20170;-50
2022/03/15 21:41:54;;;;;;;18.58;13.13;;;;;;;;;;10244987;28;20063;-53
2022/03/15 21:46:52;;;;;;;17.83;12.63;;;;;;;;;;10257345;28;20088;-52
2022/03/15 21:51:51;;;;;;;20.08;14.27;;;;;;;;;;10263254;28;20045;-53
2022/03/15 21:56:53;;;;;;;32.15;20.23;;;;;;;;;;10256367;28;20486;-52
2022/03/15 22:01:53;;;;;;;18.20;13.85;;;;;;;;;;10257306;28;20422;-52
2022/03/15 22:06:52;;;;;;;17.88;14.40;;;;;;;;;;10253836;28;20038;-54
2022/03/15 22:11:53;;;;;;;19.42;14.77;;;;;;;;;;10274154;28;20041;-52
2022/03/15 22:16:53;;;;;;;17.80;13.43;;;;;;;;;;10276821;28;20065;-53
2022/03/15 22:21:51;;;;;;;18.95;14.68;;;;;;;;;;10277310;28;20076;-54
2022/03/15 22:26:54;;;;;;;17.70;13.70;;;;;;;;;;10275492;28;20064;-54
2022/03/15 23:18:44;;;;;;;20.35;15.00;;;;;;;;;;10273359;28;20080;-52
2022/03/15 23:23:42;;;;;;;19.80;11.02;;;;;;;;;;10273767;28;20048;-54
2022/03/15 23:28:40;;;;;;;15.00;10.70;;;;;;;;;;10274287;28;20088;-54
2022/03/15 23:33:39;;;;;;;15.48;10.43;;;;;;;;;;10273735;28;20069;-53
2022/03/15 23:38:38;;;;;;;12.68;10.90;;;;;;;;;;10272881;28;20080;-53
2022/03/15 23:43:37;;;;;;;15.63;11.88;;;;;;;;;;10272099;28;20048;-54
2022/03/15 23:48:35;;;;;;;14.60;10.98;;;;;;;;;;10270432;28;20092;-51
2022/03/15 23:53:33;;;;;;;16.48;12.77;;;;;;;;;;10271998;28;20048;-51
2022/03/15 23:58:33;;;;;;;17.00;10.73;;;;;;;;;;10271817;28;20470;-50
